sensor_id;sensor_type;location;lat;lon;timestamp;temperature;humidity
43963;DHT22;29622;45.534;9.242;2023-05-16T00:04:13;19.50;51.10
43963;DHT22;29622;45.534;9.242;2023-05-16T00:09:13;19.50;51.20
43963;DHT22;29622;45.534;9.242;2023-05-16T00:14:14;19.40;51.20
43963;DHT22;29622;45.534;9.242;2023-05-16T00:19:15;19.40;51.30
43963;DHT22;29622;45.534;9.242;2023-05-16T00:24:16;19.40;51.40
43963;DHT22;29622;45.534;9.242;2023-05-16T00:29:16;19.40;51.40
43963;DHT22;29622;45.534;9.242;2023-05-16T00:34:17;19.30;51.50
43963;DHT22;29622;45.534;9.242;2023-05-16T00:39:18;19.30;51.60
43963;DHT22;29622;45.534;9.242;2023-05-16T00:44:19;19.30;51.70
43963;DHT22;29622;45.534;9.242;2023-05-16T00:49:19;19.20;51.60
43963;DHT22;29622;45.534;9.242;2023-05-16T00:54:21;19.20;51.70
43963;DHT22;29622;45.534;9.242;2023-05-16T00:59:23;19.20;51.70
43963;DHT22;29622;45.534;9.242;2023-05-16T01:04:24;19.10;51.80
43963;DHT22;29622;45.534;9.242;2023-05-16T01:09:27;19.10;51.90
43963;DHT22;29622;45.534;9.242;2023-05-16T01:14:42;19.10;51.90
43963;DHT22;29622;45.534;9.242;2023-05-16T01:19:56;19.00;52.10
43963;DHT22;29622;45.534;9.242;2023-05-16T01:25:20;19.00;52.10
43963;DHT22;29622;45.534;9.242;2023-05-16T01:30:21;18.90;52.10
43963;DHT22;29622;45.534;9.242;2023-05-16T01:35:22;18.90;52.20
43963;DHT22;29622;45.534;9.242;2023-05-16T01:40:37;18.80;52.20
43963;DHT22;29622;45.534;9.242;2023-05-16T01:45:47;18.80;52.60
43963;DHT22;29622;45.534;9.242;2023-05-16T01:50:54;19.00;52.40
43963;DHT22;29622;45.534;9.242;2023-05-16T01:55:56;19.20;52.40
43963;DHT22;29622;45.534;9.242;2023-05-16T02:01:02;19.50;51.90
43963;DHT22;29622;45.534;9.242;2023-05-16T02:06:04;19.30;51.70
43963;DHT22;29622;45.534;9.242;2023-05-16T02:11:04;19.10;51.70
43963;DHT22;29622;45.534;9.242;2023-05-16T02:16:05;19.00;52.00
43963;DHT22;29622;45.534;9.242;2023-05-16T02:21:06;18.80;52.00
43963;DHT22;29622;45.534;9.242;2023-05-16T02:26:06;18.70;52.20
43963;DHT22;29622;45.534;9.242;2023-05-16T02:31:07;18.60;52.30
43963;DHT22;29622;45.534;9.242;2023-05-16T02:36:08;18.50;52.50
43963;DHT22;29622;45.534;9.242;2023-05-16T02:41:09;18.40;52.60
43963;DHT22;29622;45.534;9.242;2023-05-16T02:46:33;18.20;52.80
43963;DHT22;29622;45.534;9.242;2023-05-16T02:51:34;18.10;53.20
43963;DHT22;29622;45.534;9.242;2023-05-16T02:56:35;18.10;53.10
43963;DHT22;29622;45.534;9.242;2023-05-16T03:01:36;18.10;53.30
43963;DHT22;29622;45.534;9.242;2023-05-16T03:06:39;18.10;53.40
43963;DHT22;29622;45.534;9.242;2023-05-16T03:11:40;18.10;53.40
43963;DHT22;29622;45.534;9.242;2023-05-16T03:16:40;18.10;53.40
43963;DHT22;29622;45.534;9.242;2023-05-16T03:21:43;18.10;53.50
43963;DHT22;29622;45.534;9.242;2023-05-16T03:26:43;18.20;53.50
43963;DHT22;29622;45.534;9.242;2023-05-16T03:31:44;18.20;53.40
43963;DHT22;29622;45.534;9.242;2023-05-16T03:36:48;18.10;53.50
43963;DHT22;29622;45.534;9.242;2023-05-16T03:41:48;18.10;53.60
43963;DHT22;29622;45.534;9.242;2023-05-16T03:46:49;18.00;53.60
43963;DHT22;29622;45.534;9.242;2023-05-16T03:51:50;17.90;53.60
43963;DHT22;29622;45.534;9.242;2023-05-16T03:56:51;17.80;53.70
43963;DHT22;29622;45.534;9.242;2023-05-16T04:01:52;17.80;53.70
43963;DHT22;29622;45.534;9.242;2023-05-16T04:06:52;17.70;53.90
43963;DHT22;29622;45.534;9.242;2023-05-16T04:11:53;17.60;54.00
43963;DHT22;29622;45.534;9.242;2023-05-16T04:16:57;17.60;54.10
43963;DHT22;29622;45.534;9.242;2023-05-16T04:21:57;17.50;54.10
43963;DHT22;29622;45.534;9.242;2023-05-16T04:26:58;17.50;54.20
43963;DHT22;29622;45.534;9.242;2023-05-16T04:31:58;17.40;54.30
43963;DHT22;29622;45.534;9.242;2023-05-16T04:36:59;17.40;54.40
43963;DHT22;29622;45.534;9.242;2023-05-16T04:42:00;17.40;54.50
43963;DHT22;29622;45.534;9.242;2023-05-16T04:47:01;17.40;54.70
43963;DHT22;29622;45.534;9.242;2023-05-16T04:52:01;17.40;54.80
43963;DHT22;29622;45.534;9.242;2023-05-16T04:57:02;17.40;54.80
43963;DHT22;29622;45.534;9.242;2023-05-16T05:02:03;17.40;54.80
43963;DHT22;29622;45.534;9.242;2023-05-16T05:07:04;17.40;54.90
43963;DHT22;29622;45.534;9.242;2023-05-16T05:12:04;17.40;55.10
43963;DHT22;29622;45.534;9.242;2023-05-16T05:17:07;17.40;55.10
43963;DHT22;29622;45.534;9.242;2023-05-16T05:22:08;17.40;55.30
43963;DHT22;29622;45.534;9.242;2023-05-16T05:27:08;17.50;55.30
43963;DHT22;29622;45.534;9.242;2023-05-16T05:32:09;17.60;55.30
43963;DHT22;29622;45.534;9.242;2023-05-16T05:37:10;17.70;55.30
43963;DHT22;29622;45.534;9.242;2023-05-16T05:42:10;17.80;55.30
43963;DHT22;29622;45.534;9.242;2023-05-16T05:47:11;17.90;55.40
43963;DHT22;29622;45.534;9.242;2023-05-16T05:52:12;18.00;55.40
43963;DHT22;29622;45.534;9.242;2023-05-16T05:57:13;18.20;55.30
43963;DHT22;29622;45.534;9.242;2023-05-16T06:02:14;18.30;55.20
43963;DHT22;29622;45.534;9.242;2023-05-16T06:07:15;18.40;55.00
43963;DHT22;29622;45.534;9.242;2023-05-16T06:12:16;18.60;55.10
43963;DHT22;29622;45.534;9.242;2023-05-16T06:17:17;18.80;54.80
43963;DHT22;29622;45.534;9.242;2023-05-16T06:22:17;18.90;54.60
43963;DHT22;29622;45.534;9.242;2023-05-16T06:27:18;19.00;54.60
43963;DHT22;29622;45.534;9.242;2023-05-16T06:32:18;19.10;54.60
43963;DHT22;29622;45.534;9.242;2023-05-16T06:37:19;19.30;54.40
43963;DHT22;29622;45.534;9.242;2023-05-16T06:42:20;19.30;54.00
43963;DHT22;29622;45.534;9.242;2023-05-16T06:47:20;19.40;54.10
43963;DHT22;29622;45.534;9.242;2023-05-16T06:52:21;19.60;54.30
43963;DHT22;29622;45.534;9.242;2023-05-16T06:57:22;20.20;54.00
43963;DHT22;29622;45.534;9.242;2023-05-16T07:02:22;20.30;53.10
43963;DHT22;29622;45.534;9.242;2023-05-16T07:07:23;20.20;52.80
43963;DHT22;29622;45.534;9.242;2023-05-16T07:12:24;20.10;52.50
43963;DHT22;29622;45.534;9.242;2023-05-16T07:17:24;20.00;52.30
43963;DHT22;29622;45.534;9.242;2023-05-16T07:22:25;20.00;52.00
43963;DHT22;29622;45.534;9.242;2023-05-16T07:27:26;20.00;51.80
43963;DHT22;29622;45.534;9.242;2023-05-16T07:32:27;20.10;51.60
43963;DHT22;29622;45.534;9.242;2023-05-16T07:37:28;20.20;51.40
43963;DHT22;29622;45.534;9.242;2023-05-16T07:42:30;20.30;51.20
43963;DHT22;29622;45.534;9.242;2023-05-16T07:47:30;20.50;50.90
43963;DHT22;29622;45.534;9.242;2023-05-16T07:52:31;20.50;50.90
43963;DHT22;29622;45.534;9.242;2023-05-16T07:57:32;20.60;51.20
43963;DHT22;29622;45.534;9.242;2023-05-16T08:02:33;20.60;50.90
43963;DHT22;29622;45.534;9.242;2023-05-16T08:07:34;20.70;50.90
43963;DHT22;29622;45.534;9.242;2023-05-16T08:12:35;20.70;50.80
43963;DHT22;29622;45.534;9.242;2023-05-16T08:17:36;20.80;51.00
43963;DHT22;29622;45.534;9.242;2023-05-16T08:22:37;20.70;50.90
43963;DHT22;29622;45.534;9.242;2023-05-16T08:27:38;20.70;51.00
43963;DHT22;29622;45.534;9.242;2023-05-16T08:32:39;20.60;50.90
43963;DHT22;29622;45.534;9.242;2023-05-16T08:37:40;20.60;51.00
43963;DHT22;29622;45.534;9.242;2023-05-16T08:42:40;20.90;50.90
43963;DHT22;29622;45.534;9.242;2023-05-16T08:47:41;21.00;50.60
43963;DHT22;29622;45.534;9.242;2023-05-16T08:52:43;21.10;50.50
43963;DHT22;29622;45.534;9.242;2023-05-16T08:57:50;21.20;50.20
43963;DHT22;29622;45.534;9.242;2023-05-16T09:02:51;21.20;49.90
43963;DHT22;29622;45.534;9.242;2023-05-16T09:07:52;21.10;49.90
43963;DHT22;29622;45.534;9.242;2023-05-16T09:12:53;21.00;49.90
43963;DHT22;29622;45.534;9.242;2023-05-16T09:17:53;20.80;49.90
43963;DHT22;29622;45.534;9.242;2023-05-16T09:22:56;20.60;50.00
43963;DHT22;29622;45.534;9.242;2023-05-16T09:27:59;20.60;50.00
43963;DHT22;29622;45.534;9.242;2023-05-16T09:33:05;20.50;49.90
43963;DHT22;29622;45.534;9.242;2023-05-16T09:38:13;20.40;50.00
43963;DHT22;29622;45.534;9.242;2023-05-16T09:43:15;20.60;50.00
43963;DHT22;29622;45.534;9.242;2023-05-16T09:48:16;20.60;49.80
43963;DHT22;29622;45.534;9.242;2023-05-16T09:53:24;20.40;50.00
43963;DHT22;29622;45.534;9.242;2023-05-16T09:58:31;20.30;50.00
43963;DHT22;29622;45.534;9.242;2023-05-16T10:03:37;20.20;50.30
43963;DHT22;29622;45.534;9.242;2023-05-16T10:08:41;20.30;50.60
43963;DHT22;29622;45.534;9.242;2023-05-16T10:13:42;20.30;50.50
43963;DHT22;29622;45.534;9.242;2023-05-16T10:18:44;20.30;50.40
43963;DHT22;29622;45.534;9.242;2023-05-16T10:23:47;20.30;50.40
43963;DHT22;29622;45.534;9.242;2023-05-16T10:28:50;20.20;50.40
43963;DHT22;29622;45.534;9.242;2023-05-16T10:33:51;20.30;50.60
43963;DHT22;29622;45.534;9.242;2023-05-16T10:38:53;20.50;50.40
43963;DHT22;29622;45.534;9.242;2023-05-16T10:43:58;20.50;50.30
43963;DHT22;29622;45.534;9.242;2023-05-16T10:48:58;20.50;50.40
43963;DHT22;29622;45.534;9.242;2023-05-16T10:54:18;20.50;50.40
43963;DHT22;29622;45.534;9.242;2023-05-16T10:59:23;20.60;50.50
43963;DHT22;29622;45.534;9.242;2023-05-16T11:04:44;20.70;50.60
43963;DHT22;29622;45.534;9.242;2023-05-16T11:09:49;20.70;50.20
43963;DHT22;29622;45.534;9.242;2023-05-16T11:14:52;20.70;50.30
43963;DHT22;29622;45.534;9.242;2023-05-16T11:19:57;20.80;50.40
43963;DHT22;29622;45.534;9.242;2023-05-16T11:25:06;20.80;50.10
43963;DHT22;29622;45.534;9.242;2023-05-16T11:30:13;20.80;50.30
43963;DHT22;29622;45.534;9.242;2023-05-16T11:35:16;20.80;50.40
43963;DHT22;29622;45.534;9.242;2023-05-16T11:40:17;20.80;50.50
43963;DHT22;29622;45.534;9.242;2023-05-16T11:45:19;20.70;50.70
43963;DHT22;29622;45.534;9.242;2023-05-16T11:50:24;20.70;51.10
43963;DHT22;29622;45.534;9.242;2023-05-16T11:55:27;20.70;51.30
43963;DHT22;29622;45.534;9.242;2023-05-16T12:00:29;20.70;51.20
43963;DHT22;29622;45.534;9.242;2023-05-16T12:05:30;20.70;51.30
43963;DHT22;29622;45.534;9.242;2023-05-16T12:10:31;20.50;51.20
43963;DHT22;29622;45.534;9.242;2023-05-16T12:15:35;20.50;52.00
43963;DHT22;29622;45.534;9.242;2023-05-16T12:20:36;20.40;51.70
43963;DHT22;29622;45.534;9.242;2023-05-16T12:25:37;20.50;51.80
43963;DHT22;29622;45.534;9.242;2023-05-16T12:30:43;20.50;51.80
43963;DHT22;29622;45.534;9.242;2023-05-16T12:35:46;20.50;51.80
43963;DHT22;29622;45.534;9.242;2023-05-16T12:40:47;20.40;51.80
43963;DHT22;29622;45.534;9.242;2023-05-16T12:45:55;20.50;51.90
43963;DHT22;29622;45.534;9.242;2023-05-16T12:50:56;20.60;51.70
43963;DHT22;29622;45.534;9.242;2023-05-16T12:55:56;20.60;51.50
43963;DHT22;29622;45.534;9.242;2023-05-16T13:00:57;20.50;51.30
43963;DHT22;29622;45.534;9.242;2023-05-16T13:05:58;20.40;51.50
43963;DHT22;29622;45.534;9.242;2023-05-16T13:10:59;20.20;51.60
43963;DHT22;29622;45.534;9.242;2023-05-16T13:16:00;20.10;51.80
43963;DHT22;29622;45.534;9.242;2023-05-16T13:21:01;20.10;52.00
43963;DHT22;29622;45.534;9.242;2023-05-16T13:26:03;20.20;52.10
43963;DHT22;29622;45.534;9.242;2023-05-16T13:31:04;20.20;51.90
43963;DHT22;29622;45.534;9.242;2023-05-16T13:36:05;20.30;51.70
43963;DHT22;29622;45.534;9.242;2023-05-16T13:41:15;20.40;51.50
43963;DHT22;29622;45.534;9.242;2023-05-16T13:46:15;20.40;51.40
43963;DHT22;29622;45.534;9.242;2023-05-16T13:51:16;20.60;51.40
43963;DHT22;29622;45.534;9.242;2023-05-16T13:56:16;20.80;51.40
43963;DHT22;29622;45.534;9.242;2023-05-16T14:01:17;20.90;51.00
43963;DHT22;29622;45.534;9.242;2023-05-16T14:06:18;21.10;51.00
43963;DHT22;29622;45.534;9.242;2023-05-16T14:11:18;21.20;50.50
43963;DHT22;29622;45.534;9.242;2023-05-16T14:16:22;21.20;50.20
43963;DHT22;29622;45.534;9.242;2023-05-16T14:21:23;21.20;50.20
43963;DHT22;29622;45.534;9.242;2023-05-16T14:26:23;21.40;50.10
43963;DHT22;29622;45.534;9.242;2023-05-16T14:31:24;21.50;50.00
43963;DHT22;29622;45.534;9.242;2023-05-16T14:36:25;21.80;49.90
43963;DHT22;29622;45.534;9.242;2023-05-16T14:41:26;22.10;49.60
43963;DHT22;29622;45.534;9.242;2023-05-16T14:46:27;22.30;49.20
43963;DHT22;29622;45.534;9.242;2023-05-16T14:51:27;22.70;48.70
43963;DHT22;29622;45.534;9.242;2023-05-16T14:56:28;22.80;48.40
43963;DHT22;29622;45.534;9.242;2023-05-16T15:01:29;23.10;47.90
43963;DHT22;29622;45.534;9.242;2023-05-16T15:06:30;23.30;47.40
43963;DHT22;29622;45.534;9.242;2023-05-16T15:11:31;23.60;47.10
43963;DHT22;29622;45.534;9.242;2023-05-16T15:16:31;23.80;46.90
43963;DHT22;29622;45.534;9.242;2023-05-16T15:21:32;24.00;46.70
43963;DHT22;29622;45.534;9.242;2023-05-16T15:26:33;24.10;46.60
43963;DHT22;29622;45.534;9.242;2023-05-16T15:31:33;24.00;46.40
43963;DHT22;29622;45.534;9.242;2023-05-16T15:36:34;24.00;46.40
43963;DHT22;29622;45.534;9.242;2023-05-16T15:41:34;23.90;46.70
43963;DHT22;29622;45.534;9.242;2023-05-16T15:46:35;23.80;46.10
43963;DHT22;29622;45.534;9.242;2023-05-16T15:51:36;23.80;46.00
43963;DHT22;29622;45.534;9.242;2023-05-16T15:56:36;23.80;45.80
43963;DHT22;29622;45.534;9.242;2023-05-16T16:01:37;23.70;45.70
43963;DHT22;29622;45.534;9.242;2023-05-16T16:06:38;23.70;45.60
43963;DHT22;29622;45.534;9.242;2023-05-16T16:11:38;23.60;45.60
43963;DHT22;29622;45.534;9.242;2023-05-16T16:16:39;23.60;45.50
43963;DHT22;29622;45.534;9.242;2023-05-16T16:21:40;23.50;45.40
43963;DHT22;29622;45.534;9.242;2023-05-16T16:26:41;23.40;45.60
43963;DHT22;29622;45.534;9.242;2023-05-16T16:31:42;23.40;45.40
43963;DHT22;29622;45.534;9.242;2023-05-16T16:36:42;23.30;45.30
43963;DHT22;29622;45.534;9.242;2023-05-16T16:41:43;23.30;45.50
43963;DHT22;29622;45.534;9.242;2023-05-16T16:46:44;23.20;45.40
43963;DHT22;29622;45.534;9.242;2023-05-16T16:51:45;23.10;45.20
43963;DHT22;29622;45.534;9.242;2023-05-16T16:56:46;23.00;45.10
43963;DHT22;29622;45.534;9.242;2023-05-16T17:01:48;22.90;45.10
43963;DHT22;29622;45.534;9.242;2023-05-16T17:06:49;22.80;45.50
43963;DHT22;29622;45.534;9.242;2023-05-16T17:11:49;22.80;45.70
43963;DHT22;29622;45.534;9.242;2023-05-16T17:16:51;22.80;45.90
43963;DHT22;29622;45.534;9.242;2023-05-16T17:21:51;22.70;46.00
43963;DHT22;29622;45.534;9.242;2023-05-16T17:26:52;22.70;46.00
43963;DHT22;29622;45.534;9.242;2023-05-16T17:31:53;22.70;45.90
43963;DHT22;29622;45.534;9.242;2023-05-16T17:36:53;22.60;45.90
43963;DHT22;29622;45.534;9.242;2023-05-16T17:41:54;22.60;45.90
43963;DHT22;29622;45.534;9.242;2023-05-16T17:46:56;22.40;45.90
43963;DHT22;29622;45.534;9.242;2023-05-16T17:51:57;22.10;46.20
43963;DHT22;29622;45.534;9.242;2023-05-16T17:56:58;21.80;46.40
43963;DHT22;29622;45.534;9.242;2023-05-16T18:01:59;21.70;46.70
43963;DHT22;29622;45.534;9.242;2023-05-16T18:07:00;21.60;46.70
43963;DHT22;29622;45.534;9.242;2023-05-16T18:12:01;21.60;46.50
43963;DHT22;29622;45.534;9.242;2023-05-16T18:17:02;21.60;46.40
43963;DHT22;29622;45.534;9.242;2023-05-16T18:22:03;21.60;46.40
43963;DHT22;29622;45.534;9.242;2023-05-16T18:27:06;21.60;46.60
43963;DHT22;29622;45.534;9.242;2023-05-16T18:32:08;21.50;46.40
43963;DHT22;29622;45.534;9.242;2023-05-16T18:37:09;21.40;46.30
43963;DHT22;29622;45.534;9.242;2023-05-16T18:42:10;21.20;46.20
43963;DHT22;29622;45.534;9.242;2023-05-16T18:47:11;21.10;46.60
43963;DHT22;29622;45.534;9.242;2023-05-16T18:52:12;21.10;46.50
43963;DHT22;29622;45.534;9.242;2023-05-16T18:57:13;21.00;46.30
43963;DHT22;29622;45.534;9.242;2023-05-16T19:02:14;20.90;46.40
43963;DHT22;29622;45.534;9.242;2023-05-16T19:07:15;20.70;46.30
43963;DHT22;29622;45.534;9.242;2023-05-16T19:12:18;20.60;46.50
43963;DHT22;29622;45.534;9.242;2023-05-16T19:17:19;20.50;46.50
43963;DHT22;29622;45.534;9.242;2023-05-16T19:22:20;20.40;46.50
43963;DHT22;29622;45.534;9.242;2023-05-16T19:27:20;20.40;46.60
43963;DHT22;29622;45.534;9.242;2023-05-16T19:32:23;20.20;46.60
43963;DHT22;29622;45.534;9.242;2023-05-16T19:37:32;20.10;46.70
43963;DHT22;29622;45.534;9.242;2023-05-16T19:42:33;20.10;47.00
43963;DHT22;29622;45.534;9.242;2023-05-16T19:47:34;20.10;47.10
43963;DHT22;29622;45.534;9.242;2023-05-16T19:52:35;20.10;47.50
43963;DHT22;29622;45.534;9.242;2023-05-16T19:57:36;20.20;47.50
43963;DHT22;29622;45.534;9.242;2023-05-16T20:02:36;20.30;47.40
43963;DHT22;29622;45.534;9.242;2023-05-16T20:07:37;20.20;47.40
43963;DHT22;29622;45.534;9.242;2023-05-16T20:12:39;20.10;47.40
43963;DHT22;29622;45.534;9.242;2023-05-16T20:17:41;20.10;47.40
43963;DHT22;29622;45.534;9.242;2023-05-16T20:22:42;20.10;47.40
43963;DHT22;29622;45.534;9.242;2023-05-16T20:27:43;20.00;47.40
43963;DHT22;29622;45.534;9.242;2023-05-16T20:32:49;20.00;47.60
43963;DHT22;29622;45.534;9.242;2023-05-16T20:37:51;20.00;47.50
43963;DHT22;29622;45.534;9.242;2023-05-16T20:42:51;20.00;47.50
43963;DHT22;29622;45.534;9.242;2023-05-16T20:47:52;20.00;47.60
43963;DHT22;29622;45.534;9.242;2023-05-16T20:52:56;19.90;47.60
43963;DHT22;29622;45.534;9.242;2023-05-16T20:57:57;19.80;47.70
43963;DHT22;29622;45.534;9.242;2023-05-16T21:02:59;19.70;47.90
43963;DHT22;29622;45.534;9.242;2023-05-16T21:08:03;19.60;48.10
43963;DHT22;29622;45.534;9.242;2023-05-16T21:13:04;19.50;48.20
43963;DHT22;29622;45.534;9.242;2023-05-16T21:18:05;19.40;48.30
43963;DHT22;29622;45.534;9.242;2023-05-16T21:23:05;19.30;48.50
43963;DHT22;29622;45.534;9.242;2023-05-16T21:28:06;19.30;48.70
43963;DHT22;29622;45.534;9.242;2023-05-16T21:33:07;19.20;48.80
43963;DHT22;29622;45.534;9.242;2023-05-16T21:38:15;19.10;48.90
43963;DHT22;29622;45.534;9.242;2023-05-16T21:43:32;19.10;49.00
43963;DHT22;29622;45.534;9.242;2023-05-16T21:48:39;19.00;49.20
43963;DHT22;29622;45.534;9.242;2023-05-16T21:53:43;18.90;49.40
43963;DHT22;29622;45.534;9.242;2023-05-16T21:58:46;18.90;49.60
43963;DHT22;29622;45.534;9.242;2023-05-16T22:03:56;18.80;49.60
43963;DHT22;29622;45.534;9.242;2023-05-16T22:08:59;18.80;49.70
43963;DHT22;29622;45.534;9.242;2023-05-16T22:14:13;18.70;49.80
43963;DHT22;29622;45.534;9.242;2023-05-16T22:19:13;18.70;50.00
43963;DHT22;29622;45.534;9.242;2023-05-16T22:24:14;18.70;50.10
43963;DHT22;29622;45.534;9.242;2023-05-16T22:29:21;18.60;50.10
43963;DHT22;29622;45.534;9.242;2023-05-16T22:34:24;18.60;50.30
43963;DHT22;29622;45.534;9.242;2023-05-16T22:39:26;18.60;50.40
43963;DHT22;29622;45.534;9.242;2023-05-16T22:44:46;18.60;50.40
43963;DHT22;29622;45.534;9.242;2023-05-16T22:49:47;18.50;50.40
43963;DHT22;29622;45.534;9.242;2023-05-16T22:54:47;18.50;50.50
43963;DHT22;29622;45.534;9.242;2023-05-16T22:59:51;18.50;50.60
43963;DHT22;29622;45.534;9.242;2023-05-16T23:04:52;18.50;50.70
43963;DHT22;29622;45.534;9.242;2023-05-16T23:09:55;18.50;50.90
43963;DHT22;29622;45.534;9.242;2023-05-16T23:14:57;18.50;51.00
43963;DHT22;29622;45.534;9.242;2023-05-16T23:19:58;18.40;51.00
43963;DHT22;29622;45.534;9.242;2023-05-16T23:24:59;18.40;51.10
43963;DHT22;29622;45.534;9.242;2023-05-16T23:30:00;18.40;51.20
43963;DHT22;29622;45.534;9.242;2023-05-16T23:35:01;18.40;51.20
43963;DHT22;29622;45.534;9.242;2023-05-16T23:40:02;18.40;51.40
43963;DHT22;29622;45.534;9.242;2023-05-16T23:45:03;18.40;51.40
43963;DHT22;29622;45.534;9.242;2023-05-16T23:50:04;18.40;51.50
43963;DHT22;29622;45.534;9.242;2023-05-16T23:55:06;18.40;51.60
